createdAt,value
2023-11-03T00:00:16.067Z,48.68
2023-11-03T00:03:01.510Z,48.36
2023-11-03T00:05:47.007Z,48.62
2023-11-03T00:08:32.532Z,48.43
2023-11-03T00:11:17.901Z,48.40
2023-11-03T00:14:02.995Z,48.79
2023-11-03T00:16:48.573Z,48.64
2023-11-03T00:19:33.651Z,48.62
2023-11-03T00:22:19.219Z,48.65
2023-11-03T00:25:04.258Z,48.70
2023-11-03T00:27:49.719Z,48.43
2023-11-03T00:30:35.086Z,48.37
2023-11-03T00:33:20.843Z,48.55
2023-11-03T00:36:06.246Z,49.30
2023-11-03T00:38:51.361Z,48.83
2023-11-03T00:41:36.836Z,48.45
2023-11-03T00:44:22.190Z,48.71
2023-11-03T00:47:07.473Z,47.74
2023-11-03T00:49:52.588Z,48.39
2023-11-03T00:52:37.521Z,48.35
2023-11-03T00:55:22.472Z,48.66
2023-11-03T00:58:07.459Z,48.93
2023-11-03T01:00:52.816Z,48.83
2023-11-03T01:03:38.111Z,48.13
2023-11-03T01:06:23.604Z,48.49
2023-11-03T01:09:09.108Z,48.27
2023-11-03T01:11:54.143Z,48.31
2023-11-03T01:14:39.080Z,48.67
2023-11-03T01:17:24.757Z,48.42
2023-11-03T01:20:10.088Z,48.31
2023-11-03T01:22:55.483Z,48.48
2023-11-03T01:25:40.755Z,48.92
2023-11-03T01:28:25.750Z,48.52
2023-11-03T01:31:10.828Z,48.42
2023-11-03T01:33:56.218Z,49.06
2023-11-03T01:36:41.719Z,48.85
2023-11-03T01:39:26.929Z,48.74
2023-11-03T01:42:12.006Z,49.03
2023-11-03T01:44:57.612Z,48.73
2023-11-03T01:47:42.623Z,48.80
2023-11-03T01:50:28.178Z,48.79
2023-11-03T01:53:13.215Z,47.98
2023-11-03T01:55:58.893Z,48.76
2023-11-03T01:58:43.921Z,48.66
2023-11-03T02:01:29.265Z,48.19
2023-11-03T02:04:14.395Z,49.02
2023-11-03T02:06:59.809Z,48.42
2023-11-03T02:09:45.287Z,48.32
2023-11-03T02:12:30.600Z,48.41
2023-11-03T02:15:15.633Z,48.25
2023-11-03T02:18:00.708Z,48.23
2023-11-03T02:20:46.086Z,48.29
2023-11-03T02:23:31.501Z,48.29
2023-11-03T02:26:16.772Z,48.25
2023-11-03T02:29:01.835Z,48.34
2023-11-03T02:31:46.888Z,48.28
2023-11-03T02:34:32.168Z,48.38
2023-11-03T02:37:17.422Z,48.90
2023-11-03T02:40:02.869Z,48.26
2023-11-03T02:42:48.352Z,48.04
2023-11-03T02:45:33.204Z,48.35
2023-11-03T02:48:19.019Z,48.56
2023-11-03T02:51:04.256Z,48.35
2023-11-03T02:53:49.272Z,48.33
2023-11-03T02:56:34.251Z,48.38
2023-11-03T02:59:19.210Z,47.93
2023-11-03T03:02:04.593Z,48.32
2023-11-03T03:04:50.048Z,48.04
2023-11-03T03:07:35.496Z,48.67
2023-11-03T03:10:20.663Z,48.68
2023-11-03T03:13:06.045Z,48.02
2023-11-03T03:15:51.643Z,48.49
2023-11-03T03:18:36.762Z,48.74
2023-11-03T03:24:07.368Z,48.50
2023-11-03T03:26:52.355Z,48.31
2023-11-03T03:29:38.009Z,48.25
2023-11-03T03:32:23.663Z,48.09
2023-11-03T03:35:09.135Z,48.11
2023-11-03T03:37:54.508Z,48.37
2023-11-03T03:40:39.953Z,47.95
2023-11-03T03:43:25.527Z,48.15
2023-11-03T03:46:10.986Z,48.19
2023-11-03T03:48:56.262Z,47.86
2023-11-03T03:51:41.619Z,48.79
2023-11-03T03:54:26.607Z,48.36
2023-11-03T03:57:12.003Z,47.76
2023-11-03T03:59:57.606Z,48.21
2023-11-03T04:02:42.712Z,48.17
2023-11-03T04:05:28.080Z,48.35
2023-11-03T04:08:13.531Z,47.95
2023-11-03T04:10:58.865Z,47.75
2023-11-03T04:13:44.475Z,48.14
2023-11-03T04:16:31.337Z,48.00
2023-11-03T04:19:16.954Z,48.00
2023-11-03T04:22:02.625Z,48.05
2023-11-03T04:24:48.234Z,48.10
2023-11-03T04:27:33.611Z,47.79
2023-11-03T04:30:18.722Z,48.05
2023-11-03T04:33:04.306Z,48.61
2023-11-03T04:35:49.602Z,48.05
2023-11-03T04:38:34.543Z,48.23
2023-11-03T04:41:19.378Z,48.14
2023-11-03T04:44:04.333Z,47.91
2023-11-03T04:46:49.374Z,47.27
2023-11-03T04:49:34.865Z,47.69
2023-11-03T04:52:20.013Z,48.08
2023-11-03T04:55:05.556Z,47.90
2023-11-03T04:57:51.047Z,48.07
2023-11-03T05:00:36.519Z,48.29
2023-11-03T05:03:22.056Z,48.26
2023-11-03T05:06:07.676Z,47.75
2023-11-03T05:08:53.228Z,47.29
2023-11-03T05:11:38.754Z,47.59
2023-11-03T05:14:24.483Z,47.26
2023-11-03T05:17:10.161Z,47.30
2023-11-03T05:19:55.400Z,47.75
2023-11-03T05:22:40.779Z,47.08
2023-11-03T05:25:26.260Z,47.36
2023-11-03T05:28:11.832Z,47.83
2023-11-03T05:30:57.162Z,47.69
2023-11-03T05:33:42.624Z,46.92
2023-11-03T05:36:28.272Z,47.43
2023-11-03T05:39:13.612Z,47.43
2023-11-03T05:41:58.756Z,47.24
2023-11-03T05:44:43.709Z,47.04
2023-11-03T05:47:28.668Z,47.25
2023-11-03T05:50:14.289Z,47.17
2023-11-03T05:52:59.393Z,46.92
2023-11-03T05:55:44.902Z,47.19
2023-11-03T05:58:30.326Z,47.50
2023-11-03T06:01:15.759Z,46.90
2023-11-03T06:04:01.191Z,47.30
2023-11-03T06:06:46.678Z,47.33
2023-11-03T06:09:32.128Z,47.29
2023-11-03T06:12:17.477Z,47.34
2023-11-03T06:15:03.047Z,47.19
2023-11-03T06:17:48.227Z,47.35
2023-11-03T06:20:33.604Z,48.05
2023-11-03T06:23:19.362Z,48.19
2023-11-03T06:26:04.868Z,48.12
2023-11-03T06:28:49.925Z,48.53
2023-11-03T06:31:36.983Z,48.31
2023-11-03T06:34:22.598Z,48.30
2023-11-03T06:37:08.075Z,48.81
2023-11-03T06:39:53.523Z,49.24
2023-11-03T06:42:39.007Z,49.45
2023-11-03T06:45:24.167Z,49.12
2023-11-03T06:48:09.576Z,49.77
2023-11-03T06:50:55.281Z,49.38
2023-11-03T06:53:40.785Z,49.79
2023-11-03T06:56:26.180Z,49.94
2023-11-03T06:59:11.645Z,49.61
2023-11-03T07:01:57.103Z,50.19
2023-11-03T07:04:42.783Z,49.91
2023-11-03T07:07:28.142Z,49.98
2023-11-03T07:10:13.262Z,49.91
2023-11-03T07:12:58.536Z,49.80
2023-11-03T07:15:44.007Z,49.95
2023-11-03T07:18:29.448Z,50.18
2023-11-03T07:21:14.944Z,49.99
2023-11-03T07:24:01.482Z,50.16
2023-11-03T07:26:48.384Z,49.71
2023-11-03T07:29:34.302Z,49.93
2023-11-03T07:32:20.241Z,50.44
2023-11-03T07:35:05.698Z,49.59
2023-11-03T07:37:51.237Z,50.08
2023-11-03T07:40:36.341Z,50.37
2023-11-03T07:43:21.828Z,50.00
2023-11-03T07:46:07.480Z,50.57
2023-11-03T07:48:52.761Z,49.84
2023-11-03T07:51:38.034Z,49.87
2023-11-03T07:54:23.128Z,50.03
2023-11-03T07:57:08.672Z,49.80
2023-11-03T07:59:54.227Z,49.72
2023-11-03T08:02:39.708Z,49.85
2023-11-03T08:05:25.238Z,49.34
2023-11-03T08:08:10.584Z,50.00
2023-11-03T08:10:56.201Z,49.40
2023-11-03T08:13:41.688Z,49.89
2023-11-03T08:16:27.120Z,50.10
2023-11-03T08:19:12.643Z,49.99
2023-11-03T08:21:57.892Z,49.70
2023-11-03T08:24:43.313Z,49.45
2023-11-03T08:27:28.602Z,49.91
2023-11-03T08:30:14.246Z,49.73
2023-11-03T08:32:59.646Z,49.52
2023-11-03T08:35:44.941Z,49.65
2023-11-03T08:38:29.985Z,49.39
2023-11-03T08:41:14.985Z,49.47
2023-11-03T08:44:00.643Z,49.79
2023-11-03T08:46:46.024Z,49.87
2023-11-03T08:49:31.592Z,49.61
2023-11-03T08:52:17.017Z,49.72
2023-11-03T08:55:02.566Z,50.16
2023-11-03T08:57:48.141Z,49.50
2023-11-03T09:00:33.479Z,49.39
2023-11-03T09:03:19.214Z,49.58
2023-11-03T09:06:05.539Z,49.74
2023-11-03T09:08:52.004Z,49.48
2023-11-03T09:11:37.453Z,49.19
2023-11-03T09:14:22.816Z,48.88
2023-11-03T09:17:08.324Z,49.17
2023-11-03T09:19:53.320Z,49.60
2023-11-03T09:22:40.240Z,49.10
2023-11-03T09:25:26.794Z,49.39
2023-11-03T09:28:12.450Z,49.43
2023-11-03T09:30:57.690Z,49.37
2023-11-03T09:33:42.968Z,49.30
2023-11-03T09:36:28.573Z,49.29
2023-11-03T09:39:14.175Z,49.17
2023-11-03T09:41:59.662Z,49.08
2023-11-03T09:44:45.068Z,48.99
2023-11-03T09:47:30.321Z,48.74
2023-11-03T09:50:15.657Z,49.02
2023-11-03T09:53:01.202Z,48.86
2023-11-03T09:55:46.754Z,48.99
2023-11-03T09:58:32.272Z,49.04
2023-11-03T10:01:17.885Z,48.88
2023-11-03T10:04:03.364Z,48.95
2023-11-03T10:06:48.695Z,48.60
2023-11-03T10:09:34.189Z,49.03
2023-11-03T10:12:19.845Z,48.71
2023-11-03T10:15:05.465Z,48.71
2023-11-03T10:17:50.821Z,49.38
2023-11-03T10:20:36.268Z,48.85
2023-11-03T10:23:21.800Z,49.28
2023-11-03T10:26:07.226Z,48.64
2023-11-03T10:28:52.792Z,48.71
2023-11-03T10:31:37.836Z,48.27
2023-11-03T10:34:23.973Z,48.33
2023-11-03T10:37:09.390Z,48.56
2023-11-03T10:39:54.612Z,48.23
2023-11-03T10:42:40.104Z,48.23
2023-11-03T10:45:25.597Z,48.56
2023-11-03T10:48:11.169Z,48.64
2023-11-03T10:50:56.447Z,47.99
2023-11-03T10:53:42.169Z,47.90
2023-11-03T10:56:38.781Z,47.97
2023-11-03T10:59:34.853Z,47.74
2023-11-03T11:02:20.525Z,48.02
2023-11-03T11:05:06.269Z,48.00
2023-11-03T11:07:51.498Z,47.99
2023-11-03T11:10:36.995Z,48.19
2023-11-03T11:13:22.764Z,47.89
2023-11-03T11:16:08.116Z,47.93
2023-11-03T11:18:53.976Z,48.34
2023-11-03T11:21:39.294Z,48.36
2023-11-03T11:24:24.513Z,48.35
2023-11-03T11:27:10.154Z,48.19
2023-11-03T11:29:55.775Z,48.08
2023-11-03T11:32:41.529Z,47.85
2023-11-03T11:35:26.951Z,47.80
2023-11-03T11:38:12.370Z,47.85
2023-11-03T11:40:57.200Z,47.77
2023-11-03T11:43:46.811Z,47.84
2023-11-03T11:46:32.755Z,47.47
2023-11-03T11:49:18.355Z,47.61
2023-11-03T11:52:03.841Z,47.61
2023-11-03T11:54:49.515Z,47.28
2023-11-03T11:57:34.941Z,47.77
2023-11-03T12:00:20.611Z,47.09
2023-11-03T12:03:06.111Z,47.14
2023-11-03T12:05:51.451Z,47.03
2023-11-03T12:08:36.989Z,46.98
2023-11-03T12:11:22.493Z,47.50
2023-11-03T12:14:07.957Z,47.55
2023-11-03T12:16:53.382Z,47.58
2023-11-03T12:19:39.261Z,47.52
2023-11-03T12:22:24.844Z,47.71
2023-11-03T12:25:10.277Z,47.25
2023-11-03T12:27:55.972Z,46.95
2023-11-03T12:30:41.256Z,47.16
2023-11-03T12:33:26.988Z,47.00
2023-11-03T12:36:12.363Z,46.59
2023-11-03T12:38:57.709Z,47.13
2023-11-03T12:41:43.384Z,47.05
2023-11-03T12:44:28.680Z,47.61
2023-11-03T12:47:14.139Z,47.05
2023-11-03T12:49:59.459Z,46.99
2023-11-03T12:52:44.799Z,46.75
2023-11-03T12:55:30.043Z,46.80
2023-11-03T12:58:15.635Z,46.50
2023-11-03T13:01:00.936Z,46.91
2023-11-03T13:03:46.375Z,46.35
2023-11-03T13:06:31.804Z,46.92
2023-11-03T13:09:17.221Z,47.03
2023-11-03T13:12:02.753Z,46.94
2023-11-03T13:14:48.082Z,47.11
2023-11-03T13:17:32.931Z,47.16
2023-11-03T13:20:18.497Z,46.91
2023-11-03T13:23:04.006Z,46.56
2023-11-03T13:25:49.556Z,46.91
2023-11-03T13:28:35.175Z,47.30
2023-11-03T13:31:20.674Z,46.96
2023-11-03T13:34:06.182Z,47.03
2023-11-03T13:36:51.654Z,47.62
2023-11-03T13:39:37.157Z,47.17
2023-11-03T13:42:22.678Z,46.92
2023-11-03T13:45:07.666Z,47.29
2023-11-03T13:47:53.381Z,47.15
2023-11-03T13:50:38.833Z,47.17
2023-11-03T13:53:24.249Z,47.00
2023-11-03T13:56:09.871Z,47.19
2023-11-03T13:58:55.212Z,47.24
2023-11-03T14:01:40.966Z,47.27
2023-11-03T14:04:26.457Z,47.29
2023-11-03T14:07:14.006Z,47.63
2023-11-03T14:12:43.484Z,47.50
2023-11-03T14:15:28.927Z,46.99
2023-11-03T14:18:14.416Z,47.45
2023-11-03T14:20:59.643Z,47.01
2023-11-03T14:23:46.525Z,46.90
2023-11-03T14:26:32.776Z,47.17
2023-11-03T14:29:18.536Z,47.01
2023-11-03T14:32:03.991Z,47.15
2023-11-03T14:34:49.592Z,47.20
2023-11-03T14:37:35.103Z,47.30
2023-11-03T14:40:20.552Z,47.40
2023-11-03T14:43:06.026Z,46.96
2023-11-03T14:45:51.602Z,47.17
2023-11-03T14:48:36.619Z,47.47
2023-11-03T14:51:22.198Z,47.65
2023-11-03T14:54:07.589Z,47.07
2023-11-03T14:56:52.502Z,46.88
2023-11-03T14:59:37.863Z,47.14
2023-11-03T15:02:23.599Z,46.78
2023-11-03T15:05:09.040Z,47.47
2023-11-03T15:07:54.473Z,46.81
2023-11-03T15:10:40.016Z,46.99
2023-11-03T15:13:25.334Z,47.29
2023-11-03T15:16:10.776Z,47.34
2023-11-03T15:18:56.157Z,47.44
2023-11-03T15:21:41.538Z,47.30
2023-11-03T15:24:26.635Z,47.13
2023-11-03T15:27:12.031Z,48.04
2023-11-03T15:29:57.313Z,48.01
2023-11-03T15:32:42.831Z,47.02
2023-11-03T15:35:28.587Z,47.44
2023-11-03T15:38:14.056Z,47.26
2023-11-03T15:40:59.497Z,47.12
2023-11-03T15:43:45.045Z,47.41
2023-11-03T15:46:30.536Z,47.43
2023-11-03T15:49:15.848Z,46.88
2023-11-03T15:52:01.449Z,47.36
2023-11-03T15:54:46.765Z,47.25
2023-11-03T15:57:32.429Z,47.04
2023-11-03T16:00:17.870Z,47.48
2023-11-03T16:03:03.458Z,47.47
2023-11-03T16:05:48.940Z,47.27
2023-11-03T16:08:34.224Z,47.39
2023-11-03T16:11:19.853Z,47.25
2023-11-03T16:14:05.282Z,47.25
2023-11-03T16:16:50.812Z,47.52
2023-11-03T16:19:36.429Z,47.30
2023-11-03T16:22:21.955Z,46.70
2023-11-03T16:25:07.964Z,47.47
2023-11-03T16:27:53.923Z,47.35
2023-11-03T16:30:39.529Z,47.53
2023-11-03T16:33:24.993Z,47.58
2023-11-03T16:36:10.362Z,47.26
2023-11-03T16:38:56.092Z,47.00
2023-11-03T16:41:41.775Z,47.13
2023-11-03T16:44:27.338Z,46.79
2023-11-03T16:47:12.750Z,47.31
2023-11-03T16:49:58.395Z,46.74
2023-11-03T16:52:43.963Z,47.58
2023-11-03T16:55:29.250Z,47.58
2023-11-03T16:58:14.497Z,46.97
2023-11-03T17:00:59.995Z,47.19
2023-11-03T17:03:45.657Z,46.87
2023-11-03T17:06:31.025Z,47.21
2023-11-03T17:09:16.391Z,47.43
2023-11-03T17:12:02.042Z,46.97
2023-11-03T17:14:47.592Z,46.26
2023-11-03T17:17:33.202Z,46.92
2023-11-03T17:20:18.765Z,47.06
2023-11-03T17:23:04.208Z,47.79
2023-11-03T17:25:49.860Z,47.48
2023-11-03T17:28:35.190Z,47.43
2023-11-03T17:31:20.518Z,47.55
2023-11-03T17:34:06.117Z,48.37
2023-11-03T17:36:51.452Z,47.63
2023-11-03T17:39:36.990Z,47.47
2023-11-03T17:42:22.458Z,47.60
2023-11-03T17:45:08.030Z,47.55
2023-11-03T17:47:54.912Z,47.74
2023-11-03T17:50:40.189Z,47.50
2023-11-03T17:53:25.932Z,48.21
2023-11-03T17:56:11.189Z,47.64
2023-11-03T17:58:56.802Z,47.85
2023-11-03T18:01:42.394Z,47.77
2023-11-03T18:04:27.908Z,47.95
2023-11-03T18:07:13.489Z,47.59
2023-11-03T18:09:58.748Z,48.09
2023-11-03T18:12:44.158Z,47.84
2023-11-03T18:15:29.548Z,47.68
2023-11-03T18:18:15.205Z,47.62
2023-11-03T18:21:00.784Z,47.96
2023-11-03T18:23:46.261Z,47.48
2023-11-03T18:26:31.861Z,47.57
2023-11-03T18:29:17.360Z,47.60
2023-11-03T18:32:02.785Z,48.09
2023-11-03T18:34:48.341Z,48.02
2023-11-03T18:37:33.616Z,47.99
2023-11-03T18:40:19.088Z,47.87
2023-11-03T18:43:04.554Z,47.23
2023-11-03T18:45:49.899Z,47.80
2023-11-03T18:48:35.542Z,48.12
2023-11-03T18:51:27.441Z,48.14
2023-11-03T18:55:23.504Z,47.94
2023-11-03T19:00:26.640Z,47.13
2023-11-03T19:07:28.981Z,47.89
2023-11-03T19:09:05.742Z,47.74
2023-11-03T19:11:51.273Z,47.33
2023-11-03T19:14:36.943Z,47.18
2023-11-03T19:17:22.409Z,47.47
2023-11-03T19:20:08.067Z,47.85
2023-11-03T19:22:53.505Z,47.83
2023-11-03T19:25:39.104Z,47.66
2023-11-03T19:28:24.613Z,47.01
2023-11-03T19:31:10.019Z,47.77
2023-11-03T19:33:55.139Z,47.44
2023-11-03T19:39:26.070Z,47.74
2023-11-03T19:42:13.187Z,47.66
2023-11-03T19:44:59.966Z,48.09
2023-11-03T19:47:45.542Z,47.60
2023-11-03T19:50:30.982Z,47.17
2023-11-03T19:53:16.643Z,47.64
2023-11-03T19:56:02.176Z,47.51
2023-11-03T19:58:47.631Z,47.18
2023-11-03T20:01:33.187Z,47.67
2023-11-03T20:04:18.811Z,47.55
2023-11-03T20:07:04.192Z,47.39
2023-11-03T20:09:49.777Z,46.85
2023-11-03T20:12:34.858Z,47.35
2023-11-03T20:18:05.830Z,47.26
2023-11-03T20:20:51.176Z,47.05
2023-11-03T20:23:36.453Z,47.55
2023-11-03T20:26:21.816Z,47.69
2023-11-03T20:29:06.792Z,47.58
2023-11-03T20:31:52.191Z,47.33
2023-11-03T20:34:37.852Z,47.67
2023-11-03T20:37:23.261Z,47.29
2023-11-03T20:40:08.541Z,47.54
2023-11-03T20:42:54.022Z,47.42
2023-11-03T20:45:39.482Z,47.34
2023-11-03T20:48:25.087Z,47.30
2023-11-03T20:51:10.567Z,47.27
2023-11-03T20:53:56.061Z,47.22
2023-11-03T20:56:41.098Z,46.89
2023-11-03T20:59:26.134Z,47.17
2023-11-03T21:02:11.710Z,47.20
2023-11-03T21:04:57.343Z,47.21
2023-11-03T21:07:42.841Z,46.93
2023-11-03T21:10:28.426Z,46.98
2023-11-03T21:13:13.953Z,47.14
2023-11-03T21:15:59.124Z,47.04
2023-11-03T21:18:44.633Z,47.61
2023-11-03T21:21:30.167Z,47.17
2023-11-03T21:24:15.624Z,46.81
2023-11-03T21:27:01.079Z,47.27
2023-11-03T21:29:46.620Z,47.64
2023-11-03T21:32:32.229Z,47.73
2023-11-03T21:35:17.786Z,47.27
2023-11-03T21:38:03.358Z,47.65
2023-11-03T21:40:48.905Z,47.91
2023-11-03T21:43:34.586Z,47.32
2023-11-03T21:46:20.027Z,47.28
2023-11-03T21:49:05.461Z,47.50
2023-11-03T21:51:50.788Z,47.39
2023-11-03T21:54:36.266Z,47.31
2023-11-03T21:57:21.916Z,47.21
2023-11-03T22:00:07.311Z,47.36
2023-11-03T22:05:38.218Z,47.26
2023-11-03T22:08:23.255Z,47.13
2023-11-03T22:11:08.674Z,47.68
2023-11-03T22:13:54.448Z,47.88
2023-11-03T22:16:39.984Z,47.47
2023-11-03T22:19:25.630Z,47.38
2023-11-03T22:22:11.009Z,47.26
2023-11-03T22:24:56.286Z,47.15
2023-11-03T22:27:41.926Z,47.61
2023-11-03T22:30:27.567Z,46.93
2023-11-03T22:33:13.174Z,47.47
2023-11-03T22:35:58.663Z,47.72
2023-11-03T22:38:43.609Z,47.51
2023-11-03T22:41:29.154Z,47.01
2023-11-03T22:44:14.661Z,47.29
2023-11-03T22:46:59.663Z,46.95
2023-11-03T22:49:45.302Z,46.38
2023-11-03T22:52:30.748Z,47.52
2023-11-03T22:55:15.895Z,47.46
2023-11-03T22:58:01.360Z,47.17
2023-11-03T23:00:46.754Z,47.08
2023-11-03T23:03:32.373Z,47.28
2023-11-03T23:06:17.680Z,47.75
2023-11-03T23:09:02.628Z,46.83
2023-11-03T23:11:48.176Z,47.07
2023-11-03T23:14:33.531Z,47.46
2023-11-03T23:17:18.539Z,47.54
2023-11-03T23:20:03.996Z,46.86
2023-11-03T23:22:49.593Z,46.95
2023-11-03T23:25:35.158Z,46.88
2023-11-03T23:28:20.671Z,47.16
2023-11-03T23:31:06.093Z,47.48
2023-11-03T23:33:51.660Z,47.13
2023-11-03T23:36:37.115Z,47.51
2023-11-03T23:39:22.536Z,47.21
2023-11-03T23:42:07.949Z,47.39
2023-11-03T23:44:53.534Z,47.08
2023-11-03T23:47:38.916Z,47.00
2023-11-03T23:50:24.461Z,47.45
2023-11-03T23:53:09.982Z,47.41
2023-11-03T23:55:54.920Z,47.41
2023-11-03T23:58:39.946Z,47.63
